createdAt,value
2019-03-22T00:02:33.816Z,18.57
2019-03-22T00:07:36.057Z,17.43
2019-03-22T00:12:38.244Z,17.43
2019-03-22T00:17:40.444Z,17.33
2019-03-22T00:22:42.627Z,14.43
2019-03-22T00:27:44.840Z,15.63
2019-03-22T00:32:47.038Z,16.67
2019-03-22T00:37:49.203Z,16.20
2019-03-22T00:42:51.380Z,16.43
2019-03-22T00:47:53.577Z,20.23
2019-03-22T00:52:55.796Z,14.70
2019-03-22T00:57:58.103Z,15.17
2019-03-22T01:03:00.312Z,14.93
2019-03-22T01:08:02.492Z,12.80
2019-03-22T01:13:04.686Z,17.03
2019-03-22T01:18:06.847Z,11.43
2019-03-22T01:23:09.031Z,19.37
2019-03-22T01:28:11.282Z,12.93
2019-03-22T01:33:13.491Z,12.20
2019-03-22T01:38:15.671Z,13.63
2019-03-22T01:43:17.866Z,13.53
2019-03-22T01:48:20.047Z,12.87
2019-03-22T01:53:22.207Z,13.10
2019-03-22T01:58:24.411Z,13.77
2019-03-22T02:03:26.660Z,18.20
2019-03-22T02:08:28.879Z,13.55
2019-03-22T02:13:31.052Z,14.03
2019-03-22T02:18:33.239Z,15.40
2019-03-22T02:23:35.435Z,14.57
2019-03-22T02:28:37.606Z,13.98
2019-03-22T02:33:39.806Z,12.87
2019-03-22T02:38:41.992Z,12.43
2019-03-22T02:43:44.546Z,12.10
2019-03-22T02:48:46.801Z,15.53
2019-03-22T02:53:49.042Z,14.10
2019-03-22T02:58:51.223Z,11.67
2019-03-22T03:03:53.402Z,11.10
2019-03-22T03:08:55.616Z,14.97
2019-03-22T03:13:57.802Z,9.97
2019-03-22T03:19:00.287Z,12.83
2019-03-22T03:24:03.548Z,14.60
2019-03-22T03:29:05.712Z,12.57
2019-03-22T03:34:08.805Z,15.70
2019-03-22T03:39:10.968Z,12.23
2019-03-22T03:44:13.141Z,14.63
2019-03-22T03:49:15.366Z,11.67
2019-03-22T03:54:17.559Z,12.13
2019-03-22T03:59:19.756Z,13.90
2019-03-22T04:04:21.919Z,10.90
2019-03-22T04:09:24.129Z,11.80
2019-03-22T04:14:26.312Z,16.03
2019-03-22T04:19:28.942Z,15.00
2019-03-22T04:24:31.118Z,14.93
2019-03-22T04:29:33.312Z,12.70
2019-03-22T04:34:35.479Z,10.33
2019-03-22T04:39:37.678Z,14.47
2019-03-22T04:44:39.954Z,17.80
2019-03-22T04:49:42.138Z,16.37
2019-03-22T04:54:44.322Z,14.00
2019-03-22T04:59:46.522Z,17.30
2019-03-22T05:04:48.812Z,15.90
2019-03-22T05:09:51.068Z,12.00
2019-03-22T05:14:53.258Z,11.47
2019-03-22T05:19:55.512Z,15.07
2019-03-22T05:24:57.691Z,15.30
2019-03-22T05:29:59.897Z,14.17
2019-03-22T05:35:02.202Z,16.87
2019-03-22T05:40:05.885Z,13.17
2019-03-22T05:45:08.066Z,13.77
2019-03-22T05:50:10.258Z,13.25
2019-03-22T05:55:12.506Z,13.13
2019-03-22T06:00:16.482Z,13.37
2019-03-22T06:05:18.693Z,13.40
2019-03-22T06:10:20.907Z,12.73
2019-03-22T06:15:23.100Z,13.17
2019-03-22T06:20:25.272Z,15.90
2019-03-22T06:25:27.669Z,18.53
2019-03-22T06:30:29.997Z,12.67
2019-03-22T06:35:32.188Z,20.30
2019-03-22T06:40:34.459Z,15.23
2019-03-22T06:45:37.071Z,14.13
2019-03-22T06:50:39.278Z,19.47
2019-03-22T06:55:41.733Z,19.43
2019-03-22T07:00:44.009Z,12.83
2019-03-22T07:05:46.155Z,15.43
2019-03-22T07:10:48.359Z,16.97
2019-03-22T07:15:50.563Z,13.43
2019-03-22T07:20:52.773Z,12.77
2019-03-22T07:25:54.963Z,17.27
2019-03-22T07:30:57.157Z,16.75
2019-03-22T07:35:59.433Z,15.77
2019-03-22T07:41:01.777Z,14.17
2019-03-22T07:46:03.945Z,22.07
2019-03-22T07:51:06.158Z,15.40
2019-03-22T07:56:08.354Z,16.37
2019-03-22T08:01:10.622Z,16.00
2019-03-22T08:06:12.828Z,20.27
2019-03-22T08:11:15.034Z,22.85
2019-03-22T08:16:17.329Z,25.15
2019-03-22T08:21:19.590Z,16.62
2019-03-22T08:26:21.824Z,24.83
2019-03-22T08:31:24.060Z,15.80
2019-03-22T08:36:26.355Z,16.02
2019-03-22T08:41:28.603Z,18.25
2019-03-22T08:46:30.986Z,14.80
2019-03-22T08:51:33.202Z,15.85
2019-03-22T08:56:36.191Z,14.80
2019-03-22T09:01:38.648Z,14.47
2019-03-22T09:06:40.828Z,14.93
2019-03-22T09:11:43.041Z,13.32
2019-03-22T09:16:45.301Z,15.88
2019-03-22T09:21:47.473Z,14.23
2019-03-22T09:26:49.652Z,12.80
2019-03-22T09:31:53.682Z,13.13
2019-03-22T09:36:55.892Z,14.68
2019-03-22T09:41:58.160Z,18.70
2019-03-22T09:47:00.411Z,14.95
2019-03-22T09:52:02.671Z,19.55
2019-03-22T09:57:04.957Z,15.30
2019-03-22T10:02:07.257Z,20.00
2019-03-22T10:07:09.553Z,17.82
2019-03-22T10:12:11.829Z,14.78
2019-03-22T10:17:14.249Z,13.62
2019-03-22T10:22:16.596Z,18.52
2019-03-22T10:27:18.867Z,16.42
2019-03-22T10:32:23.686Z,18.98
2019-03-22T10:37:25.063Z,17.20
2019-03-22T10:42:27.342Z,19.23
2019-03-22T10:47:29.756Z,24.05
2019-03-22T10:52:32.084Z,12.53
2019-03-22T10:57:34.363Z,14.33
2019-03-22T11:02:36.598Z,22.17
2019-03-22T11:07:38.911Z,21.55
2019-03-22T11:12:41.297Z,22.77
2019-03-22T11:17:43.553Z,21.73
2019-03-22T11:22:45.770Z,26.65
2019-03-22T11:27:48.206Z,24.65
2019-03-22T11:32:50.541Z,24.55
2019-03-22T11:37:52.858Z,23.75
2019-03-22T11:42:55.126Z,16.90
2019-03-22T11:47:57.481Z,18.60
2019-03-22T11:52:59.797Z,22.60
2019-03-22T11:58:02.044Z,12.68
2019-03-22T12:03:04.252Z,23.13
2019-03-22T12:08:06.511Z,20.32
2019-03-22T12:13:08.797Z,19.25
2019-03-22T12:18:11.221Z,25.08
2019-03-22T12:23:13.423Z,20.45
2019-03-22T12:28:15.664Z,22.48
2019-03-22T12:33:17.946Z,25.10
2019-03-22T12:38:20.157Z,22.32
2019-03-22T12:43:22.899Z,14.20
2019-03-22T12:48:25.084Z,27.40
2019-03-22T12:53:27.413Z,17.15
2019-03-22T12:58:29.754Z,27.55
2019-03-22T13:03:32.093Z,19.25
2019-03-22T13:08:34.327Z,20.20
2019-03-22T13:13:36.637Z,19.65
2019-03-22T13:18:38.933Z,19.95
2019-03-22T13:23:41.231Z,19.30
2019-03-22T13:28:43.813Z,17.90
2019-03-22T13:33:46.145Z,24.75
2019-03-22T13:38:48.392Z,21.93
2019-03-22T13:43:50.639Z,17.52
2019-03-22T13:48:53.044Z,17.27
2019-03-22T13:53:55.568Z,16.05
2019-03-22T13:58:57.933Z,15.45
2019-03-22T14:04:00.318Z,17.82
2019-03-22T14:09:02.737Z,21.10
2019-03-22T14:14:05.060Z,24.10
2019-03-22T14:19:07.434Z,21.60
2019-03-22T14:24:09.717Z,21.75
2019-03-22T14:29:12.049Z,22.60
2019-03-22T14:34:15.258Z,19.00
2019-03-22T14:39:17.582Z,18.60
2019-03-22T14:44:25.275Z,16.20
2019-03-22T14:49:24.168Z,17.10
2019-03-22T14:54:26.422Z,15.68
2019-03-22T14:59:28.787Z,19.00
2019-03-22T15:04:31.036Z,18.32
2019-03-22T15:09:33.445Z,17.10
2019-03-22T15:14:52.467Z,19.42
2019-03-22T15:20:09.424Z,24.60
2019-03-22T15:25:19.558Z,23.25
2019-03-22T15:30:23.444Z,18.42
2019-03-22T15:35:30.610Z,20.17
2019-03-22T15:40:32.862Z,15.43
2019-03-22T15:45:35.176Z,17.00
2019-03-22T15:50:37.436Z,18.98
2019-03-22T15:55:40.174Z,15.18
2019-03-22T16:00:42.461Z,19.25
2019-03-22T16:05:44.764Z,19.73
2019-03-22T16:10:46.974Z,18.50
2019-03-22T16:15:49.473Z,12.15
2019-03-22T16:20:59.672Z,20.15
2019-03-22T16:25:55.776Z,17.92
2019-03-22T16:30:58.054Z,18.67
2019-03-22T16:36:00.543Z,33.18
2019-03-22T16:41:02.783Z,16.12
2019-03-22T16:46:05.047Z,17.82
2019-03-22T16:51:07.347Z,20.60
2019-03-22T16:56:09.681Z,18.30
2019-03-22T17:01:11.979Z,38.25
2019-03-22T17:06:14.290Z,17.37
2019-03-22T17:11:16.503Z,13.13
2019-03-22T17:16:19.209Z,16.65
2019-03-22T17:21:21.451Z,18.52
2019-03-22T17:26:23.780Z,20.43
2019-03-22T17:31:26.043Z,27.05
2019-03-22T17:36:28.280Z,36.00
2019-03-22T17:41:30.603Z,30.27
2019-03-22T17:46:33.007Z,25.40
2019-03-22T17:51:35.330Z,18.67
2019-03-22T17:56:37.634Z,13.95
2019-03-22T18:01:40.513Z,22.90
2019-03-22T18:06:42.807Z,13.98
2019-03-22T18:11:45.124Z,27.42
2019-03-22T18:16:47.358Z,29.20
2019-03-22T18:21:49.776Z,24.37
2019-03-22T18:26:52.177Z,19.53
2019-03-22T18:31:54.585Z,30.57
2019-03-22T18:36:56.928Z,23.33
2019-03-22T18:41:59.257Z,24.90
2019-03-22T18:47:01.599Z,23.60
2019-03-22T18:52:03.986Z,30.53
2019-03-22T18:57:06.573Z,29.73
2019-03-22T19:02:08.874Z,23.63
2019-03-22T19:07:11.496Z,25.33
2019-03-22T19:12:13.819Z,31.20
2019-03-22T19:17:16.144Z,28.47
2019-03-22T19:22:18.455Z,32.53
2019-03-22T19:27:20.844Z,31.80
2019-03-22T19:32:23.170Z,29.40
2019-03-22T19:37:25.534Z,33.83
2019-03-22T19:42:27.800Z,35.00
2019-03-22T19:47:30.164Z,32.57
2019-03-22T19:52:32.393Z,33.37
2019-03-22T19:57:34.678Z,34.13
2019-03-22T20:02:36.976Z,30.03
2019-03-22T20:07:39.553Z,26.50
2019-03-22T20:12:42.290Z,26.57
2019-03-22T20:17:45.509Z,28.97
2019-03-22T20:22:47.982Z,37.83
2019-03-22T20:27:50.566Z,30.90
2019-03-22T20:32:59.085Z,30.07
2019-03-22T20:38:02.457Z,28.23
2019-03-22T20:43:04.793Z,25.27
2019-03-22T20:48:07.627Z,32.00
2019-03-22T20:53:09.882Z,25.73
2019-03-22T20:58:12.246Z,26.43
2019-03-22T21:03:14.606Z,24.00
2019-03-22T21:08:16.914Z,29.07
2019-03-22T21:13:19.438Z,25.67
2019-03-22T21:18:21.627Z,29.20
2019-03-22T21:23:23.910Z,33.23
2019-03-22T21:28:26.146Z,30.40
2019-03-22T21:33:28.571Z,35.90
2019-03-22T21:38:31.203Z,27.93
2019-03-22T21:43:33.495Z,43.60
2019-03-22T21:48:35.774Z,26.33
2019-03-22T21:53:38.121Z,31.07
2019-03-22T21:58:40.420Z,31.40
2019-03-22T22:03:42.733Z,33.50
2019-03-22T22:08:45.542Z,30.80
2019-03-22T22:13:48.380Z,29.90
2019-03-22T22:18:50.683Z,29.90
2019-03-22T22:23:58.586Z,25.77
2019-03-22T22:29:01.118Z,28.63
2019-03-22T22:34:03.470Z,30.07
2019-03-22T22:39:05.747Z,28.03
2019-03-22T22:44:08.961Z,27.60
2019-03-22T22:49:11.467Z,27.87
2019-03-22T22:54:13.831Z,25.63
2019-03-22T22:59:16.146Z,27.27
2019-03-22T23:04:18.382Z,27.77
2019-03-22T23:09:20.690Z,28.33
2019-03-22T23:14:22.956Z,26.57
2019-03-22T23:19:25.296Z,22.90
2019-03-22T23:24:27.573Z,21.53
2019-03-22T23:29:29.801Z,25.20
2019-03-22T23:34:32.017Z,25.77
2019-03-22T23:39:34.341Z,28.27
2019-03-22T23:44:37.250Z,30.80
2019-03-22T23:49:39.567Z,24.00
2019-03-22T23:54:41.886Z,30.97
2019-03-22T23:59:44.103Z,23.17
